Time;durP1;ratioP1;P1;durP2;ratioP2;P2;SDS_P1;SDS_P2;PMS_P1;PMS_P2;Temp;Humidity;BMP_temperature;BMP_pressure;BME280_temperature;BME280_humidity;BME280_pressure;Samples;Min_cycle;Max_cycle;Signal;HPM_P1;HPM_P2
2023/02/24 00:01:23;;;;;;;;;36.75;32.50;;;;;11.51;56.51;100933.91;6278452;22;45334;-60
2023/02/24 00:03:52;;;;;;;;;47.25;34.25;;;;;11.52;56.49;100934.75;6278167;22;45251;-60
2023/02/24 00:06:18;;;;;;;;;42.50;33.25;;;;;11.52;56.52;100929.47;6278194;22;46228;-61
2023/02/24 00:08:46;;;;;;;;;44.25;34.00;;;;;11.51;56.25;100935.66;6275594;22;45304;-62
2023/02/24 00:11:13;;;;;;;;;45.25;34.50;;;;;11.50;56.47;100926.88;6278303;22;45285;-61
2023/02/24 00:13:40;;;;;;;;;43.00;34.25;;;;;11.49;56.37;100930.41;6301941;22;45457;-61
2023/02/24 00:16:06;;;;;;;;;41.25;34.25;;;;;11.48;56.53;100925.16;6277407;22;46455;-62
2023/02/24 00:18:32;;;;;;;;;45.25;32.25;;;;;11.46;56.27;100922.56;6276041;22;45466;-62
2023/02/24 00:21:07;;;;;;;;;37.25;32.75;;;;;11.48;56.23;100931.31;6276516;22;45344;-62
2023/02/24 00:23:34;;;;;;;;;44.25;33.75;;;;;11.49;57.02;100926.91;6278403;22;45407;-61
2023/02/24 00:26:00;;;;;;;;;40.75;34.00;;;;;11.49;56.49;100921.66;6269958;22;47263;-61
2023/02/24 00:28:27;;;;;;;;;42.75;33.75;;;;;11.50;56.45;100924.25;6278761;22;45263;-61
2023/02/24 00:30:54;;;;;;;;;36.25;32.25;;;;;11.49;56.50;100922.50;6279274;22;45235;-62
2023/02/24 00:33:22;;;;;;;;;37.50;30.25;;;;;11.50;56.43;100912.88;6279050;22;45281;-61
2023/02/24 00:35:48;;;;;;;;;38.50;32.50;;;;;11.48;56.63;100914.66;6251149;22;48419;-62
2023/02/24 00:38:14;;;;;;;;;42.25;33.00;;;;;11.48;56.29;100914.66;6276788;22;45954;-61
2023/02/24 00:40:44;;;;;;;;;35.50;31.50;;;;;11.47;56.50;100913.78;6279305;22;45268;-61
2023/02/24 00:43:10;;;;;;;;;44.25;34.00;;;;;11.45;56.61;100909.44;6278396;22;45411;-61
2023/02/24 00:45:37;;;;;;;;;45.50;35.25;;;;;11.46;56.52;100905.88;6251855;22;45224;-61
2023/02/24 00:48:03;;;;;;;;;43.75;36.00;;;;;11.44;56.36;100905.91;6277071;22;45392;-61
2023/02/24 00:50:30;;;;;;;;;42.25;34.00;;;;;11.44;56.54;100910.31;6279047;22;45347;-61
2023/02/24 00:52:55;;;;;;;;;45.50;34.25;;;;;11.43;56.41;100892.78;6278758;22;45402;-60
2023/02/24 00:55:22;;;;;;;;;48.50;39.00;;;;;11.37;56.38;100886.75;6271904;22;46046;-61
2023/02/24 00:57:49;;;;;;;;;50.50;36.25;;;;;11.38;56.48;100895.47;6278171;22;45328;-62
2023/02/24 01:00:16;;;;;;;;;42.50;35.50;;;;;11.41;56.54;100894.56;6251106;22;45238;-61
2023/02/24 01:02:43;;;;;;;;;44.75;36.25;;;;;11.42;56.46;100902.47;6278986;22;45201;-61
2023/02/24 01:05:10;;;;;;;;;40.50;32.75;;;;;11.37;56.49;100888.47;6278782;22;45329;-60
2023/02/24 01:07:36;;;;;;;;;43.25;33.75;;;;;11.38;56.57;100885.84;6278131;22;45162;-60
2023/02/24 01:10:04;;;;;;;;;46.00;34.00;;;;;11.36;56.41;100887.63;6278971;22;45178;-60
2023/02/24 01:12:48;;;;;;;;;45.75;37.00;;;;;11.35;56.60;100883.25;6278488;22;45178;-63
2023/02/24 01:15:18;;;;;;;;;49.50;40.50;;;;;11.33;56.63;100879.78;6278761;22;45403;-61
2023/02/24 01:17:44;;;;;;;;;51.00;38.00;;;;;11.30;56.41;100871.06;6277998;22;45190;-60
2023/02/24 01:20:17;;;;;;;;;45.75;34.50;;;;;11.27;56.53;100869.34;6251608;22;45383;-62
2023/02/24 01:22:52;;;;;;;;;48.75;36.75;;;;;11.27;56.67;100872.00;6252271;22;45297;-61
2023/02/24 01:25:19;;;;;;;;;48.75;38.50;;;;;11.27;56.68;100872.00;6271790;22;45645;-61
2023/02/24 01:27:45;;;;;;;;;51.25;39.50;;;;;11.21;56.68;100858.91;6278280;22;45320;-61
2023/02/24 01:30:14;;;;;;;;;49.00;38.25;;;;;11.19;56.66;100853.69;6250873;22;45253;-61
2023/02/24 01:32:41;;;;;;;;;46.75;36.25;;;;;11.22;56.58;100866.78;6250939;22;45413;-61
2023/02/24 01:35:07;;;;;;;;;50.00;39.25;;;;;11.20;56.65;100850.13;6278238;22;45336;-61
2023/02/24 01:37:32;;;;;;;;;53.25;40.00;;;;;11.17;56.55;100851.94;6250678;22;45240;-62
2023/02/24 01:39:58;;;;;;;;;50.25;40.00;;;;;11.15;56.50;100853.75;6278820;22;45228;-62
2023/02/24 01:42:23;;;;;;;;;49.00;38.00;;;;;11.13;56.86;100855.53;6278457;22;45215;-62
2023/02/24 01:44:51;;;;;;;;;56.25;42.25;;;;;11.17;56.72;100857.22;6278261;22;45679;-62
2023/02/24 01:47:19;;;;;;;;;56.25;41.50;;;;;11.13;56.82;100853.78;6250463;22;45185;-62
2023/02/24 01:49:47;;;;;;;;;51.00;40.00;;;;;11.14;56.56;100852.00;6277640;22;45244;-62
2023/02/24 01:52:21;;;;;;;;;53.50;42.75;;;;;11.13;56.65;100848.53;6278360;22;45249;-62
2023/02/24 01:55:04;;;;;;;;;55.00;41.25;;;;;11.14;56.80;100852.00;6273518;22;46120;-62
2023/02/24 01:57:34;;;;;;;;;56.75;42.75;;;;;11.11;56.70;100847.66;6278208;22;45142;-62
2023/02/24 02:00:29;;;;;;;;;55.00;43.00;;;;;11.06;56.78;100837.19;6278317;22;45399;-62
2023/02/24 02:02:51;;;;;;;;;55.75;43.50;;;;;11.10;56.69;100842.44;6275565;22;45256;-62
2023/02/24 02:05:17;;;;;;;;;57.75;41.75;;;;;11.07;56.94;100838.09;6276820;22;45936;-60
2023/02/24 02:07:44;;;;;;;;;56.75;44.25;;;;;11.07;56.73;100840.72;6277655;22;45271;-61
2023/02/24 02:10:10;;;;;;;;;51.00;41.75;;;;;11.10;56.82;100834.53;6276228;22;45300;-61
2023/02/24 02:12:42;;;;;;;;;57.75;44.00;;;;;11.09;56.80;100838.91;6248564;22;45329;-64
2023/02/24 02:15:12;;;;;;;;;55.75;42.75;;;;;11.06;56.69;100828.47;6278257;22;45336;-61
2023/02/24 02:18:02;;;;;;;;;53.75;40.75;;;;;11.09;56.81;100832.78;6277292;22;45111;-61
2023/02/24 02:20:58;;;;;;;;;57.00;44.75;;;;;11.09;56.80;100827.53;6277948;22;45194;-61
2023/02/24 02:23:57;;;;;;;;;50.50;37.00;;;;;11.06;56.95;100818.78;6249940;22;45647;-61
2023/02/24 02:26:41;;;;;;;;;52.75;42.25;;;;;11.06;56.96;100817.94;6278176;22;45488;-60
2023/02/24 02:29:28;;;;;;;;;57.00;44.00;;;;;11.03;56.94;100815.34;6250704;22;45193;-61
2023/02/24 02:32:15;;;;;;;;;57.00;44.00;;;;;11.01;56.91;100819.78;6278579;22;45442;-61
2023/02/24 02:34:59;;;;;;;;;58.25;43.75;;;;;11.00;56.91;100812.75;6250405;22;45639;-62
2023/02/24 02:37:36;;;;;;;;;53.00;41.75;;;;;10.99;56.90;100804.03;6278255;22;46094;-61
2023/02/24 02:40:15;;;;;;;;;60.50;44.00;;;;;10.97;56.85;100803.16;6278540;22;45201;-62
2023/02/24 02:42:48;;;;;;;;;55.00;42.75;;;;;10.93;56.93;100805.84;6250476;22;45374;-62
2023/02/24 02:45:34;;;;;;;;;52.75;42.00;;;;;10.96;56.81;100792.69;6240604;22;45256;-64
2023/02/24 02:48:05;;;;;;;;;57.00;43.00;;;;;10.95;57.05;100798.81;6277504;22;45185;-61
2023/02/24 02:50:54;;;;;;;;;54.25;42.25;;;;;10.93;57.02;100804.09;6277816;22;45308;-61
2023/02/24 02:53:39;;;;;;;;;50.25;39.75;;;;;10.91;56.91;100794.50;6278351;22;45224;-61
2023/02/24 02:56:15;;;;;;;;;56.00;42.75;;;;;10.92;56.87;100788.34;6278141;22;45265;-61
2023/02/24 02:58:46;;;;;;;;;57.00;43.00;;;;;10.89;57.00;100791.88;6250248;22;47680;-62
2023/02/24 03:01:17;;;;;;;;;55.75;41.50;;;;;10.89;56.88;100797.13;6250191;22;45460;-62
2023/02/24 03:03:48;;;;;;;;;55.25;40.25;;;;;10.89;57.29;100799.75;6277412;22;45193;-61
2023/02/24 03:06:23;;;;;;;;;55.00;42.00;;;;;10.87;57.14;100791.06;6277907;22;45329;-62
2023/02/24 03:09:10;;;;;;;;;52.75;42.00;;;;;10.85;56.86;100793.69;6277407;22;45359;-62
2023/02/24 03:11:37;;;;;;;;;58.25;42.50;;;;;10.85;57.00;100798.94;6274703;22;45517;-61
2023/02/24 03:14:05;;;;;;;;;53.50;43.50;;;;;10.84;56.87;100788.44;6277504;22;45168;-61
2023/02/24 03:16:33;;;;;;;;;59.75;45.00;;;;;10.83;56.89;100799.84;6277785;22;45447;-62
2023/02/24 03:19:04;;;;;;;;;56.75;43.50;;;;;10.81;57.03;100788.50;6277604;22;46342;-62
2023/02/24 03:21:37;;;;;;;;;50.75;39.50;;;;;10.82;57.07;100792.88;6278132;22;45230;-62
2023/02/24 03:24:05;;;;;;;;;58.75;44.00;;;;;10.83;57.12;100799.84;6279356;22;45115;-62
2023/02/24 03:26:45;;;;;;;;;55.00;41.50;;;;;10.82;56.89;100800.78;6278550;22;45363;-62
2023/02/24 03:29:17;;;;;;;;;54.75;41.00;;;;;10.82;57.09;100809.50;6277755;22;46390;-61
2023/02/24 03:31:52;;;;;;;;;55.75;41.50;;;;;10.82;57.12;100803.41;6278796;22;45295;-61
2023/02/24 03:34:26;;;;;;;;;55.00;42.75;;;;;10.80;57.13;100794.66;6279090;22;45300;-61
2023/02/24 03:36:53;;;;;;;;;58.00;45.00;;;;;10.80;57.16;100794.66;6276620;22;45835;-61
2023/02/24 03:39:18;;;;;;;;;52.75;42.50;;;;;10.79;57.06;100791.16;6279066;22;46062;-61
2023/02/24 03:41:55;;;;;;;;;53.75;43.25;;;;;10.81;57.08;100797.25;6248977;22;45854;-61
2023/02/24 03:44:21;;;;;;;;;52.00;38.00;;;;;10.80;57.06;100794.66;6276509;22;45318;-61
2023/02/24 03:46:46;;;;;;;;;58.50;45.50;;;;;10.82;57.56;100799.00;6248793;22;45605;-61
2023/02/24 03:49:15;;;;;;;;;54.50;41.50;;;;;10.80;57.03;100794.66;6250941;22;45618;-61
2023/02/24 03:51:43;;;;;;;;;58.00;44.75;;;;;10.82;57.18;100787.63;6277231;22;45268;-61
2023/02/24 03:54:43;;;;;;;;;54.50;41.50;;;;;10.82;57.28;100777.97;6279082;22;45309;-61
2023/02/24 03:57:33;;;;;;;;;58.50;44.00;;;;;10.82;57.12;100785.00;6278705;22;45430;-61
2023/02/24 04:00:24;;;;;;;;;56.00;43.25;;;;;10.81;57.20;100781.47;6276964;22;47257;-61
2023/02/24 04:03:15;;;;;;;;;55.75;43.25;;;;;10.82;57.08;100782.38;6254233;22;45196;-61
2023/02/24 04:05:57;;;;;;;;;55.00;43.00;;;;;10.82;57.18;100774.47;6279266;22;45253;-60
2023/02/24 04:08:29;;;;;;;;;55.25;43.00;;;;;10.80;57.21;100773.63;6276961;22;45320;-61
2023/02/24 04:11:09;;;;;;;;;57.50;44.00;;;;;10.82;57.19;100771.84;6278463;22;47074;-61
2023/02/24 04:13:42;;;;;;;;;55.75;42.00;;;;;10.78;57.28;100755.25;6279273;22;45268;-61
2023/02/24 04:16:10;;;;;;;;;51.00;41.50;;;;;10.83;57.17;100760.41;6279363;22;45291;-61
2023/02/24 04:18:37;;;;;;;;;54.75;41.25;;;;;10.83;57.41;100753.41;6278108;22;45336;-61
2023/02/24 04:21:05;;;;;;;;;57.00;44.50;;;;;10.83;57.40;100748.16;6277121;22;48246;-61
2023/02/24 04:23:37;;;;;;;;;57.25;44.25;;;;;10.81;57.32;100744.66;6279246;22;45382;-61
2023/02/24 04:26:03;;;;;;;;;59.00;46.00;;;;;10.83;57.25;100736.75;6277212;22;45130;-61
2023/02/24 04:28:30;;;;;;;;;51.75;42.00;;;;;10.83;57.37;100739.38;6278857;22;45387;-61
2023/02/24 04:31:04;;;;;;;;;53.25;42.25;;;;;10.82;57.31;100732.41;6279018;22;46147;-61
2023/02/24 04:33:32;;;;;;;;;53.75;41.50;;;;;10.82;57.19;100719.28;6278468;22;45296;-61
2023/02/24 04:35:57;;;;;;;;;49.75;39.50;;;;;10.81;57.23;100723.66;6252114;22;45359;-61
2023/02/24 04:38:23;;;;;;;;;61.00;44.75;;;;;10.83;57.39;100732.38;6277831;22;45458;-61
2023/02/24 04:40:48;;;;;;;;;56.25;43.75;;;;;10.81;57.34;100726.28;6279023;22;45408;-61
2023/02/24 04:43:14;;;;;;;;;58.75;44.25;;;;;10.84;57.27;100727.97;6278802;22;45308;-62
2023/02/24 04:45:39;;;;;;;;;56.50;43.25;;;;;10.82;57.22;100725.38;6279323;22;45222;-62
2023/02/24 04:48:11;;;;;;;;;57.50;45.00;;;;;10.80;57.50;100713.16;6278497;22;45367;-62
2023/02/24 04:50:38;;;;;;;;;59.00;46.00;;;;;10.83;57.28;100726.25;6279188;22;45979;-62
2023/02/24 04:53:13;;;;;;;;;56.50;43.75;;;;;10.79;57.52;100712.31;6251357;22;45885;-62
2023/02/24 04:55:41;;;;;;;;;52.50;41.75;;;;;10.81;57.52;100707.88;6278926;22;45214;-62
2023/02/24 04:58:11;;;;;;;;;58.50;43.25;;;;;10.79;57.49;100714.03;6278716;22;45123;-62
2023/02/24 05:00:39;;;;;;;;;59.75;47.75;;;;;10.81;57.44;100713.13;6249959;22;47134;-62
2023/02/24 05:03:06;;;;;;;;;54.75;43.00;;;;;10.80;57.48;100714.00;6278453;22;45405;-62
2023/02/24 05:05:32;;;;;;;;;62.00;49.25;;;;;10.80;57.48;100703.50;6279206;22;45126;-62
2023/02/24 05:08:03;;;;;;;;;55.25;41.50;;;;;10.81;57.47;100709.66;6278564;22;45170;-61
2023/02/24 05:10:34;;;;;;;;;58.50;43.25;;;;;10.80;57.23;100700.00;6278705;22;45299;-61
2023/02/24 05:13:00;;;;;;;;;57.75;44.00;;;;;10.81;57.60;100704.38;6279082;22;45221;-61
2023/02/24 05:15:30;;;;;;;;;63.00;45.25;;;;;10.81;57.42;100701.75;6279143;22;45407;-61
2023/02/24 05:18:00;;;;;;;;;57.00;44.50;;;;;10.78;57.53;100696.53;6278120;22;45205;-62
2023/02/24 05:23:11;;;;;;;;;60.50;47.25;;;;;10.81;57.33;100704.38;6278865;22;45294;-62
2023/02/24 05:25:37;;;;;;;;;58.50;46.00;;;;;10.79;57.40;100693.00;6279077;22;45657;-62
2023/02/24 05:28:04;;;;;;;;;57.50;44.25;;;;;10.80;57.41;100700.00;6278470;22;45308;-61
2023/02/24 05:30:29;;;;;;;;;54.75;42.25;;;;;10.81;57.58;100696.50;6250842;22;46877;-62
2023/02/24 05:32:55;;;;;;;;;56.00;43.50;;;;;10.79;57.56;100693.91;6278429;22;45193;-61
2023/02/24 05:35:21;;;;;;;;;58.75;43.50;;;;;10.79;57.61;100693.00;6251149;22;45201;-62
2023/02/24 05:37:46;;;;;;;;;57.75;43.25;;;;;10.79;57.34;100693.91;6278382;22;45146;-61
2023/02/24 05:40:12;;;;;;;;;57.75;44.25;;;;;10.78;57.61;100693.91;6278404;22;46318;-61
2023/02/24 05:42:39;;;;;;;;;53.50;41.25;;;;;10.77;57.59;100692.16;6250984;22;45565;-62
2023/02/24 05:45:07;;;;;;;;;54.25;43.00;;;;;10.76;57.05;100687.81;6278610;22;45186;-61
2023/02/24 05:47:33;;;;;;;;;56.25;42.25;;;;;10.73;57.39;100684.34;6278289;22;45239;-61
2023/02/24 05:49:58;;;;;;;;;54.50;43.50;;;;;10.73;57.44;100683.47;6278441;22;45319;-61
2023/02/24 05:52:24;;;;;;;;;61.50;47.25;;;;;10.71;57.76;100680.84;6278958;22;45281;-62
2023/02/24 05:54:49;;;;;;;;;51.00;38.25;;;;;10.71;57.33;100680.84;6278809;22;45251;-62
2023/02/24 05:57:23;;;;;;;;;54.75;43.00;;;;;10.69;57.74;100672.16;6278204;22;45364;-62
2023/02/24 05:59:49;;;;;;;;;54.50;41.50;;;;;10.71;57.40;100665.09;6278648;22;45336;-62
2023/02/24 06:02:21;;;;;;;;;56.00;46.50;;;;;10.72;57.56;100668.59;6278692;22;45375;-63
2023/02/24 06:04:52;;;;;;;;;54.75;41.25;;;;;10.68;57.62;100659.91;6277843;22;45197;-63
2023/02/24 06:07:21;;;;;;;;;59.50;44.75;;;;;10.70;57.72;100663.38;6277790;22;45252;-62
2023/02/24 06:09:49;;;;;;;;;56.00;44.00;;;;;10.68;57.70;100673.03;6278404;22;45928;-63
2023/02/24 06:12:15;;;;;;;;;60.25;44.25;;;;;10.70;57.70;100679.16;6278211;22;45209;-64
2023/02/24 06:14:41;;;;;;;;;59.00;45.00;;;;;10.67;57.67;100660.78;6250731;22;45217;-62
2023/02/24 06:17:07;;;;;;;;;56.25;43.25;;;;;10.66;57.74;100659.03;6278313;22;45432;-60
2023/02/24 06:19:32;;;;;;;;;58.75;45.75;;;;;10.64;57.74;100655.59;6277657;22;45633;-62
2023/02/24 06:22:03;;;;;;;;;55.75;44.25;;;;;10.61;57.63;100657.38;6278181;22;45222;-61
2023/02/24 06:24:30;;;;;;;;;54.50;45.00;;;;;10.56;58.07;100652.19;6276688;22;45340;-61
2023/02/24 06:27:18;;;;;;;;;52.00;38.25;;;;;10.63;57.76;100661.72;6278107;22;45387;-61
2023/02/24 06:29:44;;;;;;;;;59.00;46.75;;;;;10.60;57.82;100653.88;6276995;22;45987;-61
2023/02/24 06:32:10;;;;;;;;;56.50;44.00;;;;;10.56;57.77;100655.72;6278323;22;45160;-62
2023/02/24 06:34:37;;;;;;;;;54.75;44.75;;;;;10.57;57.74;100661.81;6278155;22;45372;-61
2023/02/24 06:37:04;;;;;;;;;60.75;45.50;;;;;10.57;57.36;100667.94;6250261;22;45583;-61
2023/02/24 06:39:36;;;;;;;;;61.75;46.00;;;;;10.56;57.62;100666.22;6278146;22;45397;-60
2023/02/24 06:42:03;;;;;;;;;57.50;46.50;;;;;10.53;57.51;100660.13;6277808;22;45326;-61
2023/02/24 06:44:33;;;;;;;;;60.00;44.00;;;;;10.51;57.67;100654.88;6278644;22;45249;-61
2023/02/24 06:46:59;;;;;;;;;61.00;47.25;;;;;10.51;57.62;100659.28;6278176;22;45230;-62
2023/02/24 06:49:25;;;;;;;;;55.25;45.50;;;;;10.53;57.67;100665.41;6250083;22;46864;-62
2023/02/24 06:51:53;;;;;;;;;58.00;45.50;;;;;10.50;57.64;100666.31;6278027;22;45244;-63
2023/02/24 06:54:27;;;;;;;;;58.75;43.00;;;;;10.47;57.93;100657.59;6251635;22;45403;-63
2023/02/24 06:56:54;;;;;;;;;52.75;43.00;;;;;10.47;57.74;100666.34;6226466;22;45477;-62
2023/02/24 06:59:27;;;;;;;;;58.00;44.75;;;;;10.45;57.51;100667.25;6251644;22;46954;-63
2023/02/24 07:01:57;;;;;;;;;55.50;44.50;;;;;10.47;57.70;100671.59;6283107;22;45234;-63
2023/02/24 07:04:26;;;;;;;;;54.25;41.75;;;;;10.46;57.80;100679.50;6251975;22;45301;-63
2023/02/24 07:06:56;;;;;;;;;60.25;46.00;;;;;10.33;57.75;100660.41;6252702;22;45376;-63
2023/02/24 07:09:24;;;;;;;;;53.50;43.75;;;;;10.29;57.58;100649.06;6254895;22;45246;-61
2023/02/24 07:11:52;;;;;;;;;57.75;43.50;;;;;10.38;57.88;100677.00;6279958;22;45152;-61
2023/02/24 07:14:23;;;;;;;;;57.50;43.25;;;;;10.40;57.85;100691.84;6251495;22;45379;-60
2023/02/24 07:16:56;;;;;;;;;56.00;43.75;;;;;10.36;57.64;100679.66;6278989;22;45336;-61
2023/02/24 07:19:28;;;;;;;;;55.75;41.00;;;;;10.37;57.68;100686.63;6278594;22;45150;-62
2023/02/24 07:21:58;;;;;;;;;56.25;44.50;;;;;10.38;57.87;100687.50;6278881;22;45328;-60
2023/02/24 07:24:31;;;;;;;;;53.25;42.50;;;;;10.35;57.52;100683.13;6276955;22;45637;-60
2023/02/24 07:27:00;;;;;;;;;59.50;44.50;;;;;10.34;57.79;100681.38;6275782;22;45453;-60
2023/02/24 07:29:28;;;;;;;;;55.75;44.25;;;;;10.35;57.58;100679.63;6278799;22;45288;-61
2023/02/24 07:31:53;;;;;;;;;59.25;45.75;;;;;10.33;57.79;100682.28;6278826;22;45353;-62
2023/02/24 07:34:25;;;;;;;;;52.75;38.75;;;;;10.30;57.79;100674.44;6279047;22;45248;-61
2023/02/24 07:36:51;;;;;;;;;54.50;43.25;;;;;10.31;57.63;100673.53;6278646;22;45271;-60
2023/02/24 07:39:18;;;;;;;;;55.00;41.25;;;;;10.27;57.67;100673.63;6279078;22;45979;-62
2023/02/24 07:41:44;;;;;;;;;55.25;41.00;;;;;10.24;57.64;100671.91;6278180;22;45205;-62
2023/02/24 07:44:10;;;;;;;;;56.25;42.00;;;;;10.23;57.69;100675.41;6279454;22;45313;-63
2023/02/24 07:46:37;;;;;;;;;55.25;43.00;;;;;10.23;57.58;100686.78;6279162;22;45210;-61
2023/02/24 07:49:03;;;;;;;;;57.00;46.75;;;;;10.22;57.76;100671.91;6250707;22;46651;-61
2023/02/24 07:51:29;;;;;;;;;56.00;41.25;;;;;10.21;57.56;100678.06;6278694;22;45296;-63
2023/02/24 07:53:58;;;;;;;;;57.25;43.00;;;;;10.21;57.57;100675.44;6278507;22;45103;-62
2023/02/24 07:56:29;;;;;;;;;55.00;42.50;;;;;10.18;57.64;100664.13;6278677;22;45333;-61
2023/02/24 07:59:01;;;;;;;;;59.75;44.25;;;;;10.20;57.62;100668.44;6278757;22;45369;-61
2023/02/24 08:01:29;;;;;;;;;53.50;41.75;;;;;10.16;57.60;100665.88;6279077;22;45209;-62
2023/02/24 08:04:06;;;;;;;;;56.50;42.25;;;;;10.18;57.58;100670.22;6278832;22;45182;-61
2023/02/24 08:06:37;;;;;;;;;53.75;42.50;;;;;10.16;57.63;100676.38;6251345;22;45490;-63
2023/02/24 08:09:18;;;;;;;;;56.50;43.50;;;;;10.17;57.52;100676.34;6250791;22;47139;-63
2023/02/24 08:11:44;;;;;;;;;48.25;39.50;;;;;10.16;57.58;100686.88;6278776;22;45442;-62
2023/02/24 08:14:13;;;;;;;;;50.25;38.75;;;;;10.16;57.50;100671.13;6279233;22;45256;-62
2023/02/24 08:16:43;;;;;;;;;51.50;40.25;;;;;10.05;57.57;100658.13;6278955;22;45257;-63
2023/02/24 08:19:20;;;;;;;;;50.00;41.00;;;;;10.09;57.60;100667.72;6275549;22;45272;-63
2023/02/24 08:21:49;;;;;;;;;55.25;42.75;;;;;10.12;57.49;100672.06;6278395;22;45316;-63
2023/02/24 08:24:17;;;;;;;;;51.50;38.75;;;;;10.13;57.68;100672.03;6278469;22;45293;-64
2023/02/24 08:26:44;;;;;;;;;57.25;42.50;;;;;10.13;57.50;100676.44;6278411;22;45546;-64
2023/02/24 08:29:11;;;;;;;;;50.00;41.25;;;;;10.12;57.60;100672.06;6251090;22;47549;-65
2023/02/24 08:31:36;;;;;;;;;52.50;40.75;;;;;10.17;57.48;100672.88;6250892;22;45665;-65
2023/02/24 08:34:01;;;;;;;;;52.00;40.75;;;;;10.15;57.50;100674.63;6278833;22;45410;-64
2023/02/24 08:36:27;;;;;;;;;54.25;40.75;;;;;10.16;57.42;100671.13;6251288;22;45541;-64
2023/02/24 08:38:52;;;;;;;;;52.00;38.00;;;;;10.15;57.66;100664.13;6277952;22;45261;-65
2023/02/24 08:41:27;;;;;;;;;41.75;33.25;;;;;10.16;57.50;100658.00;6278651;22;45228;-64
2023/02/24 08:43:53;;;;;;;;;53.75;41.75;;;;;10.22;57.83;100666.66;6278978;22;45157;-63
2023/02/24 08:46:24;;;;;;;;;53.50;41.25;;;;;10.23;57.76;100660.50;6278288;22;45279;-63
2023/02/24 08:48:54;;;;;;;;;54.50;42.00;;;;;10.24;57.56;100656.16;6278000;22;45929;-64
2023/02/24 08:51:27;;;;;;;;;50.00;38.25;;;;;10.22;57.75;100656.16;6278242;22;45333;-64
2023/02/24 08:53:54;;;;;;;;;51.75;40.75;;;;;10.24;57.38;100653.53;6278264;22;45262;-63
2023/02/24 08:56:26;;;;;;;;;48.50;39.00;;;;;10.21;57.39;100645.66;6278613;22;45241;-64
2023/02/24 08:59:11;;;;;;;;;46.00;37.00;;;;;10.25;57.52;100647.34;6276765;22;46084;-63
2023/02/24 09:01:39;;;;;;;;;51.25;38.25;;;;;10.24;57.33;100643.03;6278732;22;45311;-63
2023/02/24 09:04:10;;;;;;;;;53.00;41.00;;;;;10.22;57.67;100637.75;6277532;22;45232;-63
2023/02/24 09:06:48;;;;;;;;;51.75;41.00;;;;;10.27;57.62;100637.72;6276804;22;45357;-63
2023/02/24 09:09:22;;;;;;;;;52.75;43.00;;;;;10.24;57.65;100641.25;6278497;22;46709;-63
2023/02/24 09:11:49;;;;;;;;;51.50;35.25;;;;;10.28;57.51;100635.97;6278296;22;45260;-64
2023/02/24 09:14:19;;;;;;;;;50.75;38.25;;;;;10.24;57.38;100627.25;6278706;22;45316;-63
2023/02/24 09:17:01;;;;;;;;;56.25;42.25;;;;;10.28;57.59;100642.06;6250157;22;45419;-64
2023/02/24 09:22:32;;;;;;;;;49.00;35.25;;;;;10.29;57.52;100643.81;6276389;22;45291;-63
2023/02/24 09:25:20;;;;;;;;;50.00;37.75;;;;;10.30;57.56;100645.56;6274655;22;45338;-63
2023/02/24 09:28:07;;;;;;;;;42.00;33.25;;;;;10.32;57.54;100654.25;6276112;22;45264;-63
2023/02/24 09:30:38;;;;;;;;;49.25;36.00;;;;;10.34;57.34;100649.88;6265753;22;46071;-63
2023/02/24 09:33:16;;;;;;;;;43.00;34.25;;;;;10.32;57.51;100651.63;6275712;22;45412;-63
2023/02/24 09:35:45;;;;;;;;;46.00;37.75;;;;;10.33;57.56;100657.78;6274297;22;45355;-63
2023/02/24 09:38:15;;;;;;;;;32.50;25.00;;;;;10.34;57.33;100657.75;6299973;22;45428;-62
2023/02/24 09:40:49;;;;;;;;;45.25;37.25;;;;;10.40;57.52;100654.19;6274794;22;46971;-62
2023/02/24 09:43:24;;;;;;;;;44.25;35.00;;;;;10.36;57.79;100650.75;6274003;22;45697;-63
2023/02/24 09:45:59;;;;;;;;;44.00;37.25;;;;;10.43;57.72;100659.41;6276368;22;45187;-62
2023/02/24 09:48:53;;;;;;;;;43.50;36.25;;;;;10.49;57.78;100667.19;6267886;22;45347;-63
2023/02/24 09:51:20;;;;;;;;;52.50;35.25;;;;;10.51;57.99;100657.50;6275881;22;45816;-62
2023/02/24 09:53:52;;;;;;;;;47.00;36.25;;;;;10.56;57.80;100655.72;6275853;22;45301;-62
2023/02/24 09:56:41;;;;;;;;;34.75;32.00;;;;;10.60;57.85;100656.50;6300279;22;45331;-62
2023/02/24 09:59:24;;;;;;;;;49.25;36.75;;;;;10.65;57.67;100649.41;6273996;22;45660;-62
2023/02/24 10:02:02;;;;;;;;;39.50;31.25;;;;;10.68;57.77;100652.00;6276352;22;45947;-62
2023/02/24 10:04:52;;;;;;;;;43.50;36.50;;;;;10.70;57.72;100642.34;6275949;22;45286;-63
2023/02/24 10:07:28;;;;;;;;;37.50;31.50;;;;;10.75;57.59;100639.63;6273838;22;45293;-62
2023/02/24 10:10:18;;;;;;;;;43.00;34.00;;;;;10.79;57.74;100641.34;6299713;22;45358;-62
2023/02/24 10:12:49;;;;;;;;;39.00;32.25;;;;;10.84;57.84;100641.22;6275974;22;45258;-62
2023/02/24 10:15:19;;;;;;;;;46.50;35.00;;;;;10.87;57.91;100628.91;6274022;22;45348;-63
2023/02/24 10:17:51;;;;;;;;;46.00;36.00;;;;;10.93;57.90;100619.19;6218482;22;1211131;-63
2023/02/24 10:20:38;;;;;;;;;39.50;34.00;;;;;11.00;57.86;100621.66;6248276;22;45411;-61
2023/02/24 10:23:09;;;;;;;;;41.75;34.75;;;;;11.03;57.82;100626.00;6278170;22;45333;-62
2023/02/24 10:25:41;;;;;;;;;44.25;34.75;;;;;11.08;57.87;100624.19;6277575;22;45374;-62
2023/02/24 10:28:22;;;;;;;;;43.75;34.75;;;;;11.14;57.86;100615.28;6277098;22;45418;-61
2023/02/24 10:31:02;;;;;;;;;33.00;30.25;;;;;11.20;57.85;100615.19;6279434;22;45189;-61
2023/02/24 10:33:37;;;;;;;;;32.75;30.00;;;;;11.22;57.91;100605.50;6277554;22;46290;-61
2023/02/24 10:36:15;;;;;;;;;39.00;34.00;;;;;11.30;57.93;100602.72;6278845;22;45448;-61
2023/02/24 10:38:44;;;;;;;;;41.50;33.50;;;;;11.34;57.84;100607.88;6279047;22;45337;-60
2023/02/24 10:41:11;;;;;;;;;43.50;33.00;;;;;11.40;57.71;100606.06;6251418;22;45564;-62
2023/02/24 10:43:46;;;;;;;;;39.00;32.00;;;;;11.45;57.78;100588.41;6279167;22;45182;-61
2023/02/24 10:46:32;;;;;;;;;39.00;32.25;;;;;11.49;57.76;100592.69;6278845;22;45302;-62
2023/02/24 10:48:59;;;;;;;;;34.00;30.50;;;;;11.60;57.78;100593.34;6272527;22;45804;-62
2023/02/24 10:51:30;;;;;;;;;40.75;33.00;;;;;11.68;57.89;100588.81;6279206;22;45270;-62
2023/02/24 10:54:53;;;;;;;;;35.25;29.25;;;;;11.79;57.86;100585.06;6278201;22;46268;-62
2023/02/24 10:57:35;;;;;;;;;32.25;28.50;;;;;11.87;57.84;100584.00;6184490;23;45385;-63
2023/02/24 11:03:05;;;;;;;;;41.25;33.00;;;;;12.02;57.94;100574.03;6278577;22;45624;-62
2023/02/24 11:05:55;;;;;;;;;45.75;34.00;;;;;12.07;57.87;100576.59;6279006;22;45347;-64
2023/02/24 11:08:42;;;;;;;;;47.00;37.00;;;;;12.08;57.68;100568.63;6278839;22;45363;-64
2023/02/24 11:11:24;;;;;;;;;41.25;33.25;;;;;12.15;57.90;100570.25;6278799;22;45414;-67
2023/02/24 11:19:41;;;;;;;;;36.75;31.00;;;;;12.24;57.58;100555.97;6271460;22;45313;-64
2023/02/24 11:22:14;;;;;;;;;34.00;29.25;;;;;12.24;57.41;100553.34;6279422;22;45409;-66
2023/02/24 11:24:40;;;;;;;;;38.75;32.50;;;;;12.25;57.29;100539.28;6250759;22;45441;-66
2023/02/24 11:27:06;;;;;;;;;33.00;30.25;;;;;12.31;57.32;100544.41;6278716;22;46342;-63
2023/02/24 11:29:46;;;;;;;;;33.00;28.75;;;;;12.34;57.08;100548.72;6279016;22;45454;-63
2023/02/24 11:32:29;;;;;;;;;41.75;32.75;;;;;12.37;57.18;100547.78;6278974;22;45335;-64
2023/02/24 11:35:07;;;;;;;;;39.75;33.50;;;;;12.35;56.95;100535.50;6278685;22;45353;-65
2023/02/24 11:37:54;;;;;;;;;41.75;33.75;;;;;12.41;57.18;100533.63;6278555;22;45438;-67
2023/02/24 11:40:25;;;;;;;;;35.50;30.75;;;;;12.42;56.75;100528.31;6278953;22;45221;-62
2023/02/24 11:42:50;;;;;;;;;34.75;30.00;;;;;12.44;56.95;100517.72;6278878;22;45397;-64
2023/02/24 11:45:21;;;;;;;;;37.00;32.75;;;;;12.47;57.08;100517.66;6250776;22;45277;-67